Weather History for Fort Campbell, KY

Change the Weather History Date:

Monday, February 18, 2013

  Actual Average Record
Temperature  
Mean Temperature 50 °F -  
Max Temperature 63 °F 50 °F 73 °F (2000)
Min Temperature 36 °F 31 °F 8 °F (2006)
Degree Days  
Heating Degree Days 16    
Moisture  
Dew Point 40 °F    
Average Humidity 73    
Maximum Humidity 100    
Minimum Humidity 27    
Precipitation  
Precipitation 0.51 in - - ()
Sea Level Pressure  
Sea Level Pressure 29.89 in    
Wind  
Wind Speed 14 mph (South)    
Max Wind Speed 28 mph    
Max Gust Speed 38 mph    
Visibility 9 miles    
Events Rain    
Averages and records for this station are not official NWS values.
T = Trace of Precipitation, MM = Missing Value Source: NWS Daily Summary

Daily Weather History Graph

Daily Weather History Graph

Search for Another Location

Airport:

Trip Planner

Search our weather history database for the weather conditions in past years. The results will help you decide how hot, cold, wet, or windy it might be!

Date:

Astronomy

Feb. 18, 2013 Rise Set
Actual Time 6:34 AM CST 5:33 PM CST
Civil Twilight 6:08 AM CST 6:00 PM CST
Nautical Twilight 5:37 AM CST 6:30 PM CST
Astronomical Twilight 5:07 AM CST 7:00 PM CST
Moon 11:24 AM CST (2/18) 1:09 AM CST (2/18)
Length of Visible Light 11h 52m
Length of Day
10h 59m
First Quarter, 58% of the Moon is Illuminated
Feb 18
First Quarter
Feb 25
Full
Mar 4
Last Quarter
Mar 11
New
Mar 19
First Quarter

Hourly Weather History & Observations

Time (CST) Temp. Windchill Dew Point Humidity Pressure Visibility Wind Dir Wind Speed Gust Speed Precip Events Conditions
12:55 AM 36.7 °F 29.9 °F 17.4 °F 46% 30.12 in 10.0 mi SE 9.2 mph - N/A   Clear
1:55 AM 36.1 °F 30.6 °F 18.1 °F 48% 30.11 in 10.0 mi SSE 6.9 mph - N/A   Clear
2:55 AM 37.0 °F 32.4 °F 19.6 °F 49% 30.10 in 10.0 mi SSE 5.8 mph - N/A   Clear
3:55 AM 40.8 °F 35.6 °F 21.7 °F 47% 30.09 in 10.0 mi South 8.1 mph - N/A   Clear
4:55 AM 40.5 °F 34.6 °F 22.6 °F 49% 30.11 in 10.0 mi South 9.2 mph - N/A   Clear
5:55 AM 41.2 °F 35.0 °F 24.1 °F 51% 30.11 in 10.0 mi South 10.4 mph - N/A   Clear
6:55 AM 41.2 °F 35.5 °F 26.4 °F 56% 30.12 in 10.0 mi South 9.2 mph - N/A   Clear
7:55 AM 45.0 °F 38.9 °F 29.3 °F 54% 30.12 in 10.0 mi South 12.7 mph 17.3 mph N/A   Clear
8:55 AM 50.0 °F - 33.4 °F 53% 30.11 in 10.0 mi SSW 15.0 mph - N/A   Clear
9:55 AM 54.0 °F - 30.2 °F 40% 30.09 in 10.0 mi SSW 18.4 mph 27.6 mph N/A   Clear
10:55 AM 56.1 °F - 30.7 °F 38% 30.06 in 10.0 mi SSW 19.6 mph 27.6 mph N/A   Clear
11:55 AM 60.3 °F - 29.1 °F 31% 30.01 in 10.0 mi South 17.3 mph 28.8 mph N/A   Clear
12:55 PM 63.1 °F - 28.2 °F 27% 29.96 in 10.0 mi South 17.3 mph 26.5 mph N/A   Clear
1:55 PM 63.0 °F - 29.7 °F 29% 29.94 in 10.0 mi South 24.2 mph 38.0 mph N/A   Scattered Clouds
2:55 PM 62.2 °F - 30.7 °F 31% 29.90 in 10.0 mi South 17.3 mph 32.2 mph N/A   Mostly Cloudy
3:55 PM 60.8 °F - 32.5 °F 35% 29.86 in 10.0 mi South 20.7 mph 28.8 mph N/A   Mostly Cloudy
4:38 PM 60.8 °F - 33.8 °F 36% 29.86 in 10.0 mi South 24.2 mph 32.2 mph N/A   Light Drizzle
4:47 PM 59.0 °F - 33.8 °F 39% 29.86 in 10.0 mi SSW 15.0 mph 34.5 mph N/A   Mostly Cloudy
4:55 PM 59.2 °F - 34.0 °F 39% 29.88 in 10.0 mi SSW 15.0 mph 20.7 mph 0.00 in   Mostly Cloudy
5:01 PM 59.0 °F - 33.8 °F 39% 29.87 in 10.0 mi South 17.3 mph 21.9 mph N/A   Light Drizzle
5:07 PM 57.2 °F - 39.2 °F 51% 29.87 in 8.0 mi SSW 19.6 mph 25.3 mph N/A Rain Light Rain
5:17 PM 55.4 °F - 41.0 °F 58% 29.85 in 9.0 mi South 13.8 mph 28.8 mph N/A   Overcast
5:21 PM 53.6 °F - 41.0 °F 62% 29.85 in 10.0 mi South 12.7 mph 26.5 mph N/A Rain Light Rain
5:55 PM 52.0 °F - 43.2 °F 72% 29.83 in 10.0 mi South 16.1 mph 24.2 mph 0.06 in   Light Drizzle
6:11 PM 51.8 °F - 42.8 °F 71% 29.81 in 10.0 mi SSE 16.1 mph 23.0 mph N/A   Mostly Cloudy
6:49 PM 53.6 °F - 41.0 °F 62% 29.80 in 10.0 mi South 15.0 mph 24.2 mph N/A Rain Light Rain
6:55 PM 52.7 °F - 41.9 °F 67% 29.79 in 10.0 mi South 15.0 mph 24.2 mph 0.00 in   Light Drizzle
7:01 PM 51.8 °F - 41.0 °F 67% 29.79 in 10.0 mi SSE 13.8 mph 23.0 mph N/A   Overcast
7:05 PM 53.6 °F - 41.0 °F 62% 29.79 in 10.0 mi South 12.7 mph 23.0 mph N/A   Light Drizzle
7:14 PM 51.8 °F - 41.0 °F 67% 29.81 in 10.0 mi South 15.0 mph 23.0 mph N/A Rain Light Rain
7:27 PM 50.0 °F - 44.6 °F 82% 29.82 in 10.0 mi South 13.8 mph - N/A Rain Light Rain
7:36 PM 50.0 °F - 44.6 °F 82% 29.83 in 7.0 mi South 15.0 mph - N/A Rain Rain
7:43 PM 50.0 °F - 46.4 °F 87% 29.82 in 8.0 mi South 13.8 mph 21.9 mph N/A Rain Rain
7:55 PM 49.5 °F - 45.7 °F 87% 29.81 in 10.0 mi South 13.8 mph - 0.13 in Rain Light Rain
8:34 PM 50.0 °F - 46.4 °F 87% 29.79 in 10.0 mi South 12.7 mph 23.0 mph N/A   Overcast
8:41 PM 50.0 °F - 46.4 °F 87% 29.79 in 10.0 mi South 15.0 mph 21.9 mph N/A   Light Drizzle
8:53 PM 48.2 °F - 46.4 °F 93% 29.78 in 10.0 mi South 17.3 mph 27.6 mph N/A   Overcast
8:55 PM 48.9 °F - 47.1 °F 93% 29.78 in 10.0 mi South 17.3 mph 27.6 mph 0.05 in   Overcast
9:02 PM 48.2 °F - 46.4 °F 93% 29.79 in 10.0 mi South 18.4 mph 27.6 mph N/A   Light Drizzle
9:13 PM 48.2 °F - 48.2 °F 100% 29.79 in 10.0 mi South 15.0 mph 29.9 mph N/A   Overcast
9:14 PM 48.2 °F - 48.2 °F 100% 29.79 in 10.0 mi South 15.0 mph 29.9 mph N/A Rain Light Rain
9:16 PM 48.2 °F - 48.2 °F 100% 29.79 in 10.0 mi South 12.7 mph 29.9 mph N/A   Overcast
9:29 PM 48.2 °F - 48.2 °F 100% 29.79 in 10.0 mi South 17.3 mph 27.6 mph N/A Rain Light Rain
9:39 PM 48.2 °F - 48.2 °F 100% 29.81 in 10.0 mi South 15.0 mph 26.5 mph N/A Rain Light Rain
9:55 PM 48.4 °F - 48.2 °F 99% 29.88 in 3.0 mi WSW 27.6 mph - 0.13 in Rain Rain
9:57 PM 48.2 °F - 48.2 °F 100% 29.88 in 2.0 mi West 24.2 mph 28.8 mph N/A Rain Rain
10:00 PM 48.2 °F - 48.2 °F 100% 29.87 in 1.8 mi WSW 18.4 mph 28.8 mph N/A Rain Rain
10:01 PM 48.2 °F - 48.2 °F 100% 29.87 in 1.8 mi WSW 17.3 mph 28.8 mph N/A Rain Rain
10:03 PM 48.2 °F - 48.2 °F 100% 29.87 in 2.0 mi WSW 16.1 mph - N/A Rain Rain
10:05 PM 48.2 °F - 48.2 °F 100% 29.87 in 2.5 mi WSW 15.0 mph - N/A Rain Rain
10:06 PM 48.2 °F - 48.2 °F 100% 29.87 in 4.0 mi WSW 15.0 mph - N/A Rain Light Rain
10:16 PM 48.2 °F - 48.2 °F 100% 29.87 in 6.0 mi SW 13.8 mph - N/A Rain Light Rain
10:25 PM 48.2 °F - 48.2 °F 100% 29.88 in 7.0 mi WSW 18.4 mph - N/A Rain Light Rain
10:28 PM 48.2 °F - 48.2 °F 100% 29.87 in 6.0 mi SW 19.6 mph 24.2 mph N/A Rain Rain
10:40 PM 48.2 °F - 48.2 °F 100% 29.83 in 8.0 mi South 12.7 mph - N/A   Overcast
10:42 PM 48.2 °F - 48.2 °F 100% 29.83 in 9.0 mi South 12.7 mph - N/A   Overcast
10:45 PM 48.2 °F - 48.2 °F 100% 29.83 in 10.0 mi SSE 12.7 mph - N/A   Light Drizzle
10:55 PM 47.1 °F - 47.1 °F 100% 29.78 in 10.0 mi SSE 13.8 mph - 0.14 in   Light Drizzle
11:02 PM 46.4 °F 40.4 °F 46.4 °F 100% 29.81 in 10.0 mi South 13.8 mph - N/A   Mostly Cloudy
11:55 PM 48.6 °F - 48.6 °F 100% 29.83 in 10.0 mi South 13.8 mph - 0.00 in   Overcast